Roparudden, Sweden

2:19 PM CET on January 29, 2015 (GMT +0100)
Hemavan | Change Station
CLOSE
Current Station
Airport
Location: Hemavan Airport,
Elevation: 1519 ft
Nearby Weather Stations

Elev 1519 ft 65.81 °N, 15.08 °E | Updated 29 minutes ago

Light Snow
Light Snow
21 °F
Feels Like 2 °F
N
34
Wind Variable Wind from East
Gusts 48 mph

Today
High -- | Low -- °F
--% Chance of Precip.
Yesterday
High -- | Low -- °F
Precip. -- in
9:07 AM 3:08 PM
Waxing Gibbous, 74% visible
Pressure 28.65 in
Visibility 0.5 miles
Clouds
Windchill 2 °F
Dew Point 18 °F
Humidity 86%
Rainfall 0.00 in
Snow Depth Not available.
UV Not available.
Pollen Not available.
Air Quality Not available.
Flu Activity Not available.
METAR ESUT 291250Z AUTO 08030G42KT 0800 R33/0800V1800D -SN ///027 M06/M08 Q0970

More Conditions Fewer Conditions

Pressure 28.65 in
Visibility 0.5 miles
Clouds
Windchill 2 °F
Dew Point 18 °F
Humidity 86%
Rainfall 0.00 in
Snow Depth Not available.
UV Not available.
Pollen Not available.
Air Quality Not available.
Flu Activity Not available.
METAR ESUT 291250Z AUTO 08030G42KT 0800 R33/0800V1800D -SN ///027 M06/M08 Q0970

More Conditions Fewer Conditions

10-Day Weather Forecast

Almanac

Astronomy

Jan. 29, 2015 Rise Set
Actual Time
Civil Twilight
Nautical Twilight
Astronomical Twilight
Moon
Length of Visible Light
Length of Day
Tomorrow will be .
, % of the Moon is Illuminated

Today's Extremes

Country Highs Country Lows

Community

WunderPhotos

Upload Photos

1,791,426 photos uploaded!

WunderBlogs® & News

Nearby

Air Quality

  Air Quality AQ Index Pollutant
Not available.

Snow Depth

Station Depth Elevation

Earthquake Activity

City Distance Mag. Time & Date
Minimum magnitude displayed is 2.5.

Coastal Water Temperatures

Place Temperature

Nearby Weather Stations